CheckWX is a tool to help pilots better visualize weather data.  It is not intended as a substitute for an official pre-flight weather briefing.

07:39:14 UTC

EGVA METAR
RAF Fairford Airport
Fairford, United Kingdom
Current

43 mins ago

EGVA 060656Z AUTO 23013KT 9999 OVC008 11/11 A2967 RMK AO2 RAE53 SLP051 P0003 T01070107
Observed
Dec-6 @ 06:56 UTC
Wind
  • 230° at 13 KTS
Visibility
10,000+ meters
Flight Rules
IFR
Cloud Levels
  • Overcast at 800' AGL
Temperature
11°C / 52°F
Dewpoint
11°C / 52°F
Humidity
100%
Altimeter
29.67" Hg
Pressure
1004.72 hPa
Current Rain
0.03"
Previous

46 mins ago

EGVA 060653Z AUTO 23012KT 9999 OVC008 11/11 A2967 RMK AO2 RAE53 SLP052
Observed
Dec-6 @ 06:53 UTC
Wind
  • 230° at 12 KTS
Visibility
10,000+ meters
Flight Rules
IFR
Cloud Levels
  • Overcast at 800' AGL
Temperature
11°C / 52°F
Dewpoint
11°C / 52°F
Humidity
100%
Altimeter
29.67" Hg
Pressure
1004.72 hPa
Previous

2 hours ago

EGVA 060556Z AUTO 22015KT 9999 -RA OVC008 11/11 A2969 RMK AO2 RAE37DZB37E41RAB41 SLP058 P0003 60004 T01050105 10105 20096 57020
Observed
Dec-6 @ 05:56 UTC
Wind
  • 220° at 15 KTS
Visibility
10,000+ meters
Flight Rules
IFR
Conditions
Light Rain
Cloud Levels
  • Overcast at 800' AGL
Temperature
11°C / 52°F
Dewpoint
11°C / 52°F
Humidity
100%
Altimeter
29.69" Hg
Pressure
1005.42 hPa
Current Rain
0.03"